Hedgesville, West Virginia
Current Conditions -  °F | °C
As of 5:53 AM on Sunday 23 Nov 2014 (Local Time) from KMRB Reporting Station
Clear Clear  
Wind Chill: 38°   Ceiling: Unl
Heat Index: 41°   Visibility: 10mi
Dew Point: 19°   Wind: 5mph
Humidity: 41%   Direction: 160°SSE
Pressure: 30.17"   Gusts: NA
Location:  39.55°N, 77.99°W
Report Text: KMRB 231053Z AUTO 16004KT 10SM CLR 05/M07 A3017 RMK AO2 SLP219 T00501072 TSNO
Loading
Personal Weather Stations






























Interactive Weather Map New forecast layout! Learn more

10-Day Weather Forecast

Advertisements
Track Severe Weather on mobile